CheckWX is a tool to help pilots better visualize weather data.  It is not intended as a substitute for an official pre-flight weather briefing.

18:17:45 UTC

FKKD METAR
Douala International Airport
Douala, Cameroon
Current

1 hour ago

FKKD 171700Z VRB03KT 4500 HZ SCT016 FEW020CB 30/25 Q1008 NOSIG
Observed
Feb-17 @ 17:00 UTC
Wind
  • Variable at 3 KTS
Visibility
4,506 meters
Flight Rules
IFR
Conditions
Haze
Cloud Levels
  • Scattered at 1,600' AGL
  • Few at 2,000' AGL
Temperature
30°C / 86°F
Dewpoint
25°C / 77°F
Humidity
75%
Altimeter
29.76" Hg
Pressure
1007.92 hPa
Previous

2 hours ago

FKKD 171600Z VRB04KT 4500 HZ SCT016 FEW020CB 31/25 Q1008 NOSIG
Observed
Feb-17 @ 16:00 UTC
Wind
  • Variable at 4 KTS
Visibility
4,506 meters
Flight Rules
IFR
Conditions
Haze
Cloud Levels
  • Scattered at 1,600' AGL
  • Few at 2,000' AGL
Temperature
31°C / 88°F
Dewpoint
25°C / 77°F
Humidity
70%
Altimeter
29.76" Hg
Pressure
1007.92 hPa
Previous

3 hours ago

FKKD 171500Z VRB04KT 4500 HZ SCT016 FEW020CB 32/25 Q1008 NOSIG
Observed
Feb-17 @ 15:00 UTC
Wind
  • Variable at 4 KTS
Visibility
4,506 meters
Flight Rules
IFR
Conditions
Haze
Cloud Levels
  • Scattered at 1,600' AGL
  • Few at 2,000' AGL
Temperature
32°C / 90°F
Dewpoint
25°C / 77°F
Humidity
67%
Altimeter
29.76" Hg
Pressure
1007.92 hPa